Time;durP1;ratioP1;P1;durP2;ratioP2;P2;SDS_P1;SDS_P2;PMS_P1;PMS_P2;Temp;Humidity;BMP_temperature;BMP_pressure;BME280_temperature;BME280_humidity;BME280_pressure;Samples;Min_cycle;Max_cycle;Signal;HPM_P1;HPM_P2
2023/03/13 00:01:47;;;;;;;;;;;8.80;99.90;;;;;;5038002;28;19921;-75
2023/03/13 00:04:13;;;;;;;;;;;8.80;99.90;;;;;;4988607;28;206850;-74
2023/03/13 00:06:39;;;;;;;;;;;8.80;99.90;;;;;;5068546;28;20370;-75
2023/03/13 00:09:07;;;;;;;;;;;8.80;99.90;;;;;;5012156;28;209824;-73
2023/03/13 00:11:33;;;;;;;;;;;8.70;99.90;;;;;;5051424;28;19928;-72
2023/03/13 00:14:00;;;;;;;;;;;8.70;99.90;;;;;;5000763;28;218518;-74
2023/03/13 00:16:27;;;;;;;;;;;8.70;99.90;;;;;;5050389;28;19928;-71
2023/03/13 00:18:54;;;;;;;;;;;8.70;99.90;;;;;;4998888;28;210531;-73
2023/03/13 00:21:21;;;;;;;;;;;8.60;99.90;;;;;;5058091;28;19933;-74
2023/03/13 00:23:47;;;;;;;;;;;8.60;99.90;;;;;;5015152;28;210132;-73
2023/03/13 00:26:14;;;;;;;;;;;8.60;99.90;;;;;;5070096;28;20329;-71
2023/03/13 00:28:41;;;;;;;;;;;8.60;99.90;;;;;;4996144;28;208428;-73
2023/03/13 00:31:07;;;;;;;;;;;8.60;99.90;;;;;;5054986;28;19928;-72
2023/03/13 00:33:33;;;;;;;;;;;8.60;99.90;;;;;;5032596;28;208477;-71
2023/03/13 00:36:00;;;;;;;;;;;8.60;99.90;;;;;;5024039;28;206552;-72
2023/03/13 00:38:27;;;;;;;;;;;8.60;99.90;;;;;;5056082;28;19935;-73
2023/03/13 00:41:00;;;;;;;;;;;8.60;99.90;;;;;;4985012;28;210059;-74
2023/03/13 00:43:26;;;;;;;;;;;8.60;99.90;;;;;;5054028;28;19937;-73
2023/03/13 00:45:52;;;;;;;;;;;8.60;99.90;;;;;;4991565;28;204465;-73
2023/03/13 00:48:17;;;;;;;;;;;8.60;99.90;;;;;;5052115;28;19966;-74
2023/03/13 00:50:43;;;;;;;;;;;8.60;99.90;;;;;;5011275;28;210123;-73
2023/03/13 00:53:09;;;;;;;;;;;8.50;99.90;;;;;;5049311;28;19925;-73
2023/03/13 00:55:35;;;;;;;;;;;8.60;99.90;;;;;;4998675;28;207109;-73
2023/03/13 00:58:01;;;;;;;;;;;8.50;99.90;;;;;;5056449;28;19929;-73
2023/03/13 01:00:27;;;;;;;;;;;8.50;99.90;;;;;;4975511;28;211577;-72
2023/03/13 01:02:53;;;;;;;;;;;8.50;99.90;;;;;;5060639;28;19936;-72
2023/03/13 01:05:19;;;;;;;;;;;8.60;99.90;;;;;;4953287;28;209224;-73
2023/03/13 01:07:45;;;;;;;;;;;8.60;99.90;;;;;;5053685;28;20031;-73
2023/03/13 01:10:10;;;;;;;;;;;8.60;99.90;;;;;;4999394;28;208253;-72
2023/03/13 01:12:36;;;;;;;;;;;8.60;99.90;;;;;;5091678;27;19928;-73
2023/03/13 01:15:03;;;;;;;;;;;8.50;99.90;;;;;;5028059;28;215797;-73
2023/03/13 01:17:29;;;;;;;;;;;8.60;99.90;;;;;;5060733;28;19928;-73
2023/03/13 01:19:56;;;;;;;;;;;8.60;99.90;;;;;;5000094;28;206399;-73
2023/03/13 01:22:22;;;;;;;;;;;8.60;99.90;;;;;;5044507;28;20321;-73
2023/03/13 01:24:51;;;;;;;;;;;8.60;99.90;;;;;;4999037;28;212224;-73
2023/03/13 01:27:18;;;;;;;;;;;8.60;99.90;;;;;;5049551;28;19928;-72
2023/03/13 01:29:44;;;;;;;;;;;8.50;99.90;;;;;;4979098;28;209568;-72
2023/03/13 01:32:10;;;;;;;;;;;8.60;99.90;;;;;;5039187;28;20716;-73
2023/03/13 01:34:36;;;;;;;;;;;8.60;99.90;;;;;;5000623;28;204939;-73
2023/03/13 01:37:02;;;;;;;;;;;8.50;99.90;;;;;;5064913;28;20047;-74
2023/03/13 01:39:28;;;;;;;;;;;8.60;99.90;;;;;;5005233;28;208377;-73
2023/03/13 01:41:54;;;;;;;;;;;8.50;99.90;;;;;;5036293;28;19920;-73
2023/03/13 01:44:22;;;;;;;;;;;8.60;99.90;;;;;;4995852;28;208278;-73
2023/03/13 01:46:48;;;;;;;;;;;8.60;99.90;;;;;;5050273;28;19927;-73
2023/03/13 01:49:13;;;;;;;;;;;8.60;99.90;;;;;;5005398;28;213026;-73
2023/03/13 01:51:44;;;;;;;;;;;8.60;99.90;;;;;;5032657;28;20417;-73
2023/03/13 01:54:13;;;;;;;;;;;8.60;99.90;;;;;;4998028;28;212738;-73
2023/03/13 01:56:46;;;;;;;;;;;8.70;99.90;;;;;;5012304;28;19929;-73
2023/03/13 01:59:13;;;;;;;;;;;8.70;99.90;;;;;;5004928;28;209633;-72
2023/03/13 02:01:40;;;;;;;;;;;8.70;99.90;;;;;;5058681;28;20999;-73
2023/03/13 02:04:06;;;;;;;;;;;8.70;99.90;;;;;;4996445;28;192806;-74
2023/03/13 02:06:34;;;;;;;;;;;8.70;99.90;;;;;;5054156;28;19928;-74
2023/03/13 02:09:06;;;;;;;;;;;8.70;99.90;;;;;;5002428;28;209173;-72
2023/03/13 02:11:44;;;;;;;;;;;8.70;99.90;;;;;;5047807;28;19924;-71
2023/03/13 02:14:11;;;;;;;;;;;8.70;99.90;;;;;;4993790;28;206999;-72
2023/03/13 02:16:38;;;;;;;;;;;8.70;99.90;;;;;;5047764;28;19925;-72
2023/03/13 02:19:15;;;;;;;;;;;8.70;99.90;;;;;;4990145;28;213048;-71
2023/03/13 02:21:43;;;;;;;;;;;8.70;99.90;;;;;;5036965;28;20378;-72
2023/03/13 02:24:15;;;;;;;;;;;8.70;99.90;;;;;;5010302;28;206274;-72
2023/03/13 02:26:41;;;;;;;;;;;8.70;99.90;;;;;;5060714;28;19929;-72
2023/03/13 02:29:08;;;;;;;;;;;8.70;99.90;;;;;;5000853;28;208142;-72
2023/03/13 02:31:34;;;;;;;;;;;8.70;99.90;;;;;;5031560;28;19927;-73
2023/03/13 02:34:00;;;;;;;;;;;8.70;99.90;;;;;;5004093;28;204266;-74
2023/03/13 02:36:27;;;;;;;;;;;8.60;99.90;;;;;;5034050;28;20325;-73
2023/03/13 02:38:58;;;;;;;;;;;8.60;99.90;;;;;;4977921;28;209257;-73
2023/03/13 02:41:24;;;;;;;;;;;8.70;99.90;;;;;;5036487;28;19920;-74
2023/03/13 02:43:50;;;;;;;;;;;8.70;99.90;;;;;;4996221;28;217617;-74
2023/03/13 02:46:17;;;;;;;;;;;8.70;99.90;;;;;;5091684;28;19928;-75
2023/03/13 02:48:47;;;;;;;;;;;8.70;99.90;;;;;;5016143;28;257696;-75
2023/03/13 02:51:17;;;;;;;;;;;8.70;99.90;;;;;;5072981;28;19931;-74
2023/03/13 02:53:45;;;;;;;;;;;8.70;99.90;;;;;;5018091;28;209048;-77
2023/03/13 02:56:13;;;;;;;;;;;8.80;99.90;;;;;;5067879;28;19924;-75
2023/03/13 02:58:40;;;;;;;;;;;8.80;99.90;;;;;;5013835;28;209213;-78
2023/03/13 03:01:06;;;;;;;;;;;8.80;99.90;;;;;;5063401;28;19935;-75
2023/03/13 03:03:34;;;;;;;;;;;8.80;99.90;;;;;;5039932;28;208818;-74
2023/03/13 03:06:00;;;;;;;;;;;8.80;99.90;;;;;;5010483;28;19927;-74
2023/03/13 03:08:26;;;;;;;;;;;8.80;99.90;;;;;;5070975;28;19935;-75
2023/03/13 03:10:52;;;;;;;;;;;8.80;99.90;;;;;;4981833;28;218158;-73
2023/03/13 03:13:18;;;;;;;;;;;8.90;99.90;;;;;;5061296;28;19931;-74
2023/03/13 03:15:44;;;;;;;;;;;8.90;99.90;;;;;;4979755;28;182263;-75
2023/03/13 03:18:10;;;;;;;;;;;8.90;99.90;;;;;;5054913;28;20588;-75
2023/03/13 03:20:36;;;;;;;;;;;8.90;99.90;;;;;;4989867;28;208097;-72
2023/03/13 03:23:02;;;;;;;;;;;9.00;99.90;;;;;;5057903;28;19928;-74
2023/03/13 03:25:28;;;;;;;;;;;9.00;99.90;;;;;;5004750;28;206332;-74
2023/03/13 03:27:54;;;;;;;;;;;9.00;99.90;;;;;;5072575;28;20432;-73
2023/03/13 03:30:19;;;;;;;;;;;9.10;99.90;;;;;;5016449;28;209604;-72
2023/03/13 03:32:45;;;;;;;;;;;9.10;99.90;;;;;;5058060;28;19927;-73
2023/03/13 03:35:11;;;;;;;;;;;9.10;99.90;;;;;;5009041;28;217785;-73
2023/03/13 03:37:37;;;;;;;;;;;9.20;99.90;;;;;;5049419;28;19960;-72
2023/03/13 03:40:05;;;;;;;;;;;9.20;99.90;;;;;;5010061;28;164754;-72
2023/03/13 03:42:31;;;;;;;;;;;9.20;99.90;;;;;;5052423;28;19931;-74
2023/03/13 03:44:57;;;;;;;;;;;9.30;99.90;;;;;;5018957;28;179906;-72
2023/03/13 03:47:23;;;;;;;;;;;9.30;99.90;;;;;;5070564;28;21427;-72
2023/03/13 03:49:49;;;;;;;;;;;9.30;99.90;;;;;;5005525;28;212959;-74
2023/03/13 03:52:15;;;;;;;;;;;9.30;99.90;;;;;;5052701;28;19931;-73
2023/03/13 03:54:41;;;;;;;;;;;9.40;99.90;;;;;;4996926;28;209773;-71
2023/03/13 03:57:06;;;;;;;;;;;9.30;99.90;;;;;;5053047;28;19940;-72
2023/03/13 03:59:32;;;;;;;;;;;9.40;99.90;;;;;;5006814;28;207264;-73
2023/03/13 04:01:58;;;;;;;;;;;9.40;99.90;;;;;;5053094;28;19928;-72
2023/03/13 04:04:24;;;;;;;;;;;9.40;99.90;;;;;;4978822;28;209556;-72
2023/03/13 04:06:50;;;;;;;;;;;9.50;99.90;;;;;;5048885;28;21639;-72
2023/03/13 04:09:16;;;;;;;;;;;9.50;99.90;;;;;;5001260;28;218672;-73
2023/03/13 04:11:42;;;;;;;;;;;9.60;99.90;;;;;;5050234;28;19932;-71
2023/03/13 04:14:08;;;;;;;;;;;9.60;99.90;;;;;;5010229;28;209428;-74
2023/03/13 04:16:34;;;;;;;;;;;9.70;99.90;;;;;;5062716;28;19920;-73
2023/03/13 04:19:00;;;;;;;;;;;9.80;99.90;;;;;;5010671;28;213001;-74
2023/03/13 04:21:26;;;;;;;;;;;9.80;99.90;;;;;;5045169;28;19931;-73
2023/03/13 04:23:52;;;;;;;;;;;9.90;99.90;;;;;;4995566;28;210422;-72
2023/03/13 04:26:18;;;;;;;;;;;9.90;99.90;;;;;;5046226;28;19927;-73
2023/03/13 04:28:44;;;;;;;;;;;10.00;99.90;;;;;;5010327;28;209476;-72
2023/03/13 04:31:09;;;;;;;;;;;10.00;99.90;;;;;;5076075;28;19931;-73
2023/03/13 04:33:35;;;;;;;;;;;10.10;99.90;;;;;;5019195;28;209112;-71
2023/03/13 04:36:02;;;;;;;;;;;10.20;99.90;;;;;;5041759;28;19924;-73
2023/03/13 04:38:28;;;;;;;;;;;10.20;99.90;;;;;;5057285;28;20417;-73
2023/03/13 04:40:54;;;;;;;;;;;10.30;99.90;;;;;;5020459;28;209240;-73
2023/03/13 04:43:20;;;;;;;;;;;10.30;99.90;;;;;;5067679;28;19928;-72
2023/03/13 04:45:46;;;;;;;;;;;10.30;99.90;;;;;;5022670;28;209628;-73
2023/03/13 04:48:12;;;;;;;;;;;10.40;99.90;;;;;;5092418;28;19934;-72
2023/03/13 04:50:37;;;;;;;;;;;10.50;99.90;;;;;;4977512;28;206548;-72
2023/03/13 04:53:03;;;;;;;;;;;10.50;99.90;;;;;;5064348;28;19939;-71
2023/03/13 04:55:29;;;;;;;;;;;10.50;99.90;;;;;;4997399;28;206639;-71
2023/03/13 04:57:55;;;;;;;;;;;10.50;99.90;;;;;;5055721;28;19934;-71
2023/03/13 05:00:21;;;;;;;;;;;10.50;99.90;;;;;;4996504;28;207416;-69
2023/03/13 05:02:47;;;;;;;;;;;10.60;99.90;;;;;;5072180;28;20336;-71
2023/03/13 05:05:13;;;;;;;;;;;10.60;99.90;;;;;;4993285;28;208294;-71
2023/03/13 05:07:39;;;;;;;;;;;10.60;99.90;;;;;;5062724;28;19921;-71
2023/03/13 05:10:05;;;;;;;;;;;10.60;99.90;;;;;;4979404;28;213887;-74
2023/03/13 05:12:31;;;;;;;;;;;10.70;99.90;;;;;;5052174;28;19955;-71
2023/03/13 05:14:57;;;;;;;;;;;10.70;99.90;;;;;;4995107;28;211312;-71
2023/03/13 05:17:22;;;;;;;;;;;10.70;99.90;;;;;;5051489;28;19931;-72
2023/03/13 05:19:48;;;;;;;;;;;10.80;99.90;;;;;;4998840;28;209034;-73
2023/03/13 05:22:14;;;;;;;;;;;10.80;99.90;;;;;;5045474;28;19929;-72
2023/03/13 05:24:40;;;;;;;;;;;10.90;99.90;;;;;;4996592;28;209684;-71
2023/03/13 05:27:06;;;;;;;;;;;10.90;99.90;;;;;;5045559;28;19925;-71
2023/03/13 05:29:32;;;;;;;;;;;10.90;99.90;;;;;;4999722;28;253469;-72
2023/03/13 05:31:58;;;;;;;;;;;10.90;99.90;;;;;;5060455;28;19927;-72
2023/03/13 05:34:24;;;;;;;;;;;11.00;99.90;;;;;;5004076;28;231496;-72
2023/03/13 05:36:50;;;;;;;;;;;11.00;99.90;;;;;;5058749;28;19935;-72
2023/03/13 05:39:16;;;;;;;;;;;11.00;99.90;;;;;;4994456;28;218021;-71
2023/03/13 05:41:42;;;;;;;;;;;11.10;99.90;;;;;;5043690;28;19936;-71
2023/03/13 05:44:07;;;;;;;;;;;11.10;99.90;;;;;;5013256;28;115690;-70
2023/03/13 05:46:33;;;;;;;;;;;11.10;99.90;;;;;;5041343;28;20345;-71
2023/03/13 05:48:59;;;;;;;;;;;11.20;99.90;;;;;;5003743;28;208570;-71
2023/03/13 05:51:25;;;;;;;;;;;11.20;99.90;;;;;;5035708;28;20654;-71
2023/03/13 05:53:51;;;;;;;;;;;11.20;99.90;;;;;;5012004;28;226063;-71
2023/03/13 05:56:17;;;;;;;;;;;11.20;99.90;;;;;;5072036;28;20476;-71
2023/03/13 05:58:43;;;;;;;;;;;11.30;99.90;;;;;;5013826;28;215428;-71
2023/03/13 06:01:10;;;;;;;;;;;11.30;99.90;;;;;;5068417;28;19932;-71
2023/03/13 06:03:36;;;;;;;;;;;11.30;99.90;;;;;;5009783;28;208875;-72
2023/03/13 06:06:02;;;;;;;;;;;11.30;99.90;;;;;;5048812;28;83550;-71
2023/03/13 06:08:28;;;;;;;;;;;11.30;99.90;;;;;;5061200;28;19929;-71
2023/03/13 06:10:57;;;;;;;;;;;11.30;99.90;;;;;;4989991;28;210245;-71
2023/03/13 06:13:23;;;;;;;;;;;11.30;99.90;;;;;;5059573;28;20007;-70
2023/03/13 06:15:50;;;;;;;;;;;11.30;99.90;;;;;;5012818;28;229764;-71
2023/03/13 06:18:16;;;;;;;;;;;11.30;99.90;;;;;;5055204;28;19956;-70
2023/03/13 06:20:41;;;;;;;;;;;11.30;99.90;;;;;;4964866;28;206398;-71
2023/03/13 06:23:07;;;;;;;;;;;11.40;99.90;;;;;;5066552;28;20470;-73
2023/03/13 06:25:33;;;;;;;;;;;11.30;99.90;;;;;;5041085;27;206377;-72
2023/03/13 06:28:00;;;;;;;;;;;11.40;99.90;;;;;;5091661;28;19943;-71
2023/03/13 06:30:25;;;;;;;;;;;11.40;99.90;;;;;;5034808;28;211822;-73
2023/03/13 06:32:51;;;;;;;;;;;11.40;99.90;;;;;;5063638;28;19924;-71
2023/03/13 06:35:17;;;;;;;;;;;11.40;99.90;;;;;;5030979;28;193192;-71
2023/03/13 06:37:43;;;;;;;;;;;11.40;99.90;;;;;;5067504;28;19920;-70
2023/03/13 06:40:10;;;;;;;;;;;11.40;99.90;;;;;;4993031;28;216210;-72
2023/03/13 06:42:36;;;;;;;;;;;11.40;99.90;;;;;;5051349;28;19928;-70
2023/03/13 06:45:02;;;;;;;;;;;11.40;99.90;;;;;;4995354;28;233458;-72
2023/03/13 06:47:31;;;;;;;;;;;11.40;99.90;;;;;;5068070;28;19924;-72
2023/03/13 06:49:57;;;;;;;;;;;11.40;99.90;;;;;;4996583;28;243396;-72
2023/03/13 06:52:24;;;;;;;;;;;11.40;99.90;;;;;;5055667;28;19931;-73
2023/03/13 06:54:50;;;;;;;;;;;11.40;99.90;;;;;;4993211;28;205056;-71
2023/03/13 06:57:16;;;;;;;;;;;11.40;99.90;;;;;;5056999;28;20562;-71
2023/03/13 06:59:42;;;;;;;;;;;11.40;99.90;;;;;;5017366;28;206626;-72
2023/03/13 07:02:09;;;;;;;;;;;11.40;99.90;;;;;;5069249;28;19931;-72
2023/03/13 07:04:35;;;;;;;;;;;11.40;99.90;;;;;;4963694;28;212329;-71
2023/03/13 07:07:01;;;;;;;;;;;11.50;99.90;;;;;;5045834;28;19920;-72
2023/03/13 07:09:27;;;;;;;;;;;11.50;99.90;;;;;;5002621;28;213484;-73
2023/03/13 07:11:53;;;;;;;;;;;11.50;99.90;;;;;;5057700;28;20011;-72
2023/03/13 07:14:19;;;;;;;;;;;11.50;99.90;;;;;;5008649;28;231199;-74
2023/03/13 07:16:45;;;;;;;;;;;11.50;99.90;;;;;;5064143;28;19920;-72
2023/03/13 07:19:12;;;;;;;;;;;11.50;99.90;;;;;;5001657;28;214707;-72
2023/03/13 07:21:38;;;;;;;;;;;11.40;99.90;;;;;;5053046;28;21836;-73
2023/03/13 07:24:04;;;;;;;;;;;11.40;99.90;;;;;;5015715;28;89298;-73
2023/03/13 07:26:29;;;;;;;;;;;11.40;99.90;;;;;;5048990;28;19924;-73
2023/03/13 07:28:56;;;;;;;;;;;11.40;99.90;;;;;;5037127;28;50977;-73
2023/03/13 07:31:25;;;;;;;;;;;11.40;99.90;;;;;;5075081;28;20281;-73
2023/03/13 07:33:55;;;;;;;;;;;11.50;99.90;;;;;;5012021;28;234409;-73
2023/03/13 07:36:21;;;;;;;;;;;11.50;99.90;;;;;;5046288;28;19925;-73
2023/03/13 07:38:47;;;;;;;;;;;11.50;99.90;;;;;;5008085;28;212328;-73
2023/03/13 07:41:13;;;;;;;;;;;11.50;99.90;;;;;;5073738;28;19921;-72
2023/03/13 07:43:39;;;;;;;;;;;11.40;99.90;;;;;;5026280;28;210952;-72
2023/03/13 07:46:06;;;;;;;;;;;11.50;99.90;;;;;;5074066;28;19921;-75
2023/03/13 07:48:33;;;;;;;;;;;11.50;99.90;;;;;;5046290;28;213589;-73
2023/03/13 07:50:59;;;;;;;;;;;11.40;99.90;;;;;;5001170;28;20334;-71
2023/03/13 07:53:25;;;;;;;;;;;11.40;99.90;;;;;;5061820;28;19925;-72
2023/03/13 07:56:05;;;;;;;;;;;11.40;99.90;;;;;;5006321;28;206515;-74
2023/03/13 07:58:33;;;;;;;;;;;11.30;99.90;;;;;;5048468;28;210132;-74
2023/03/13 08:00:59;;;;;;;;;;;11.30;99.90;;;;;;5009368;28;209472;-74
2023/03/13 08:03:26;;;;;;;;;;;11.30;99.90;;;;;;5064606;28;20246;-72
2023/03/13 08:05:59;;;;;;;;;;;11.40;99.90;;;;;;5011226;28;214916;-73
2023/03/13 08:08:25;;;;;;;;;;;11.40;99.90;;;;;;5079093;28;20394;-73
2023/03/13 08:10:51;;;;;;;;;;;11.30;99.90;;;;;;5002793;28;160429;-75
2023/03/13 08:13:17;;;;;;;;;;;11.40;99.90;;;;;;5062726;28;20594;-74
2023/03/13 08:15:43;;;;;;;;;;;11.40;99.90;;;;;;4988537;28;175720;-73
2023/03/13 08:18:08;;;;;;;;;;;11.30;99.90;;;;;;5068866;28;19921;-75
2023/03/13 08:20:34;;;;;;;;;;;11.30;99.90;;;;;;4957952;28;213014;-73
2023/03/13 08:23:00;;;;;;;;;;;11.40;99.90;;;;;;5064774;28;19925;-73
2023/03/13 08:25:26;;;;;;;;;;;11.40;99.90;;;;;;4997233;28;179319;-71
2023/03/13 08:27:53;;;;;;;;;;;11.50;99.90;;;;;;5057022;28;19920;-72
2023/03/13 08:30:19;;;;;;;;;;;11.60;99.90;;;;;;4986622;28;201122;-71
2023/03/13 08:32:45;;;;;;;;;;;11.60;99.90;;;;;;5076079;28;19973;-71
2023/03/13 08:35:11;;;;;;;;;;;11.60;99.90;;;;;;5027051;28;210539;-71
2023/03/13 08:37:37;;;;;;;;;;;11.70;99.90;;;;;;5075797;28;19927;-69
2023/03/13 08:40:09;;;;;;;;;;;11.70;99.90;;;;;;5014166;28;208546;-70
2023/03/13 08:42:35;;;;;;;;;;;11.80;99.90;;;;;;5073069;28;19927;-70
2023/03/13 08:45:01;;;;;;;;;;;11.80;99.90;;;;;;5016190;28;209478;-71
2023/03/13 08:47:27;;;;;;;;;;;11.90;99.90;;;;;;5079790;28;20430;-71
2023/03/13 08:49:54;;;;;;;;;;;12.00;99.90;;;;;;5017137;28;206182;-74
2023/03/13 08:52:20;;;;;;;;;;;12.00;99.90;;;;;;5064825;28;20413;-71
2023/03/13 08:54:47;;;;;;;;;;;12.00;99.90;;;;;;5025247;28;213512;-71
2023/03/13 08:57:14;;;;;;;;;;;12.10;99.90;;;;;;5067937;28;19928;-71
2023/03/13 08:59:40;;;;;;;;;;;12.10;99.90;;;;;;5010400;28;209520;-71
2023/03/13 09:02:07;;;;;;;;;;;12.10;99.90;;;;;;5050136;28;19928;-70
2023/03/13 09:04:33;;;;;;;;;;;12.30;99.90;;;;;;5000068;28;207683;-72
2023/03/13 09:06:59;;;;;;;;;;;12.40;99.90;;;;;;5066002;28;20035;-71
2023/03/13 09:09:25;;;;;;;;;;;12.30;99.90;;;;;;4994617;28;209756;-70
2023/03/13 09:11:51;;;;;;;;;;;12.30;99.90;;;;;;5039165;28;19928;-70
2023/03/13 09:14:17;;;;;;;;;;;12.20;99.90;;;;;;5020378;28;216442;-72
2023/03/13 09:16:45;;;;;;;;;;;12.20;99.90;;;;;;5055260;28;19927;-70
2023/03/13 09:19:11;;;;;;;;;;;12.20;99.90;;;;;;5000532;28;212931;-72
2023/03/13 09:21:37;;;;;;;;;;;12.20;99.90;;;;;;5031475;28;19940;-71
2023/03/13 09:24:03;;;;;;;;;;;12.20;99.90;;;;;;5001818;28;215034;-71
2023/03/13 09:26:30;;;;;;;;;;;12.20;99.90;;;;;;5051092;28;19932;-70
2023/03/13 09:28:56;;;;;;;;;;;12.20;99.90;;;;;;5009487;28;188513;-72
2023/03/13 09:31:23;;;;;;;;;;;12.20;99.90;;;;;;5059918;28;20581;-70
2023/03/13 09:33:50;;;;;;;;;;;12.20;99.90;;;;;;5028338;28;277120;-71
2023/03/13 09:36:17;;;;;;;;;;;12.10;99.90;;;;;;5079137;28;19920;-72
2023/03/13 09:38:44;;;;;;;;;;;12.00;99.90;;;;;;5021633;28;209228;-72
2023/03/13 09:41:16;;;;;;;;;;;12.00;99.90;;;;;;5061926;28;19932;-70
2023/03/13 09:43:44;;;;;;;;;;;12.10;99.90;;;;;;5038704;28;217234;-70
2023/03/13 09:46:14;;;;;;;;;;;12.20;99.90;;;;;;5086114;28;19923;-71
2023/03/13 09:48:46;;;;;;;;;;;12.30;99.90;;;;;;5020524;28;240918;-71
2023/03/13 09:51:22;;;;;;;;;;;12.40;99.90;;;;;;5081753;28;19928;-70
2023/03/13 09:53:52;;;;;;;;;;;12.50;99.90;;;;;;5032275;28;209220;-71
2023/03/13 09:56:21;;;;;;;;;;;12.60;99.90;;;;;;5079502;28;19920;-73
2023/03/13 09:58:50;;;;;;;;;;;13.00;99.90;;;;;;5035777;28;209640;-70
2023/03/13 10:01:19;;;;;;;;;;;13.60;99.90;;;;;;5094065;28;20530;-71
2023/03/13 10:04:06;;;;;;;;;;;13.40;99.90;;;;;;5013150;28;210279;-71
2023/03/13 10:06:39;;;;;;;;;;;13.70;99.90;;;;;;5072426;28;19928;-70
2023/03/13 10:09:14;;;;;;;;;;;13.90;99.90;;;;;;5037209;28;242548;-71
2023/03/13 10:11:45;;;;;;;;;;;13.80;99.90;;;;;;5084229;28;20385;-70
2023/03/13 10:14:14;;;;;;;;;;;13.60;99.90;;;;;;5034232;28;213054;-72
2023/03/13 10:16:46;;;;;;;;;;;13.50;99.90;;;;;;5081155;28;19935;-71
2023/03/13 10:19:16;;;;;;;;;;;13.40;99.90;;;;;;5020037;28;209949;-70
2023/03/13 10:21:43;;;;;;;;;;;13.40;99.90;;;;;;5082595;28;19924;-70
2023/03/13 10:24:18;;;;;;;;;;;13.40;99.90;;;;;;5005636;28;216160;-71
2023/03/13 10:26:44;;;;;;;;;;;13.50;99.90;;;;;;5049754;28;20308;-70
2023/03/13 10:29:20;;;;;;;;;;;13.50;99.90;;;;;;5004294;28;211226;-69
2023/03/13 10:31:55;;;;;;;;;;;13.60;99.90;;;;;;5050421;28;19939;-71
2023/03/13 10:34:22;;;;;;;;;;;13.60;99.90;;;;;;5008160;28;209127;-70
2023/03/13 10:36:49;;;;;;;;;;;13.60;99.90;;;;;;5064521;28;19939;-70
2023/03/13 10:39:16;;;;;;;;;;;13.70;99.90;;;;;;5017104;28;207053;-70
2023/03/13 10:41:42;;;;;;;;;;;13.70;99.90;;;;;;5071108;28;19928;-70
2023/03/13 10:44:18;;;;;;;;;;;13.70;99.90;;;;;;5025683;28;209072;-69
2023/03/13 10:46:45;;;;;;;;;;;13.70;99.90;;;;;;5040364;28;20007;-70
2023/03/13 10:49:18;;;;;;;;;;;14.10;99.90;;;;;;5020459;27;205115;-70
2023/03/13 10:51:49;;;;;;;;;;;14.10;99.90;;;;;;5100042;27;19928;-70
2023/03/13 10:54:26;;;;;;;;;;;14.10;99.90;;;;;;5033459;28;208447;-69
2023/03/13 10:57:06;;;;;;;;;;;14.00;99.90;;;;;;5055756;28;19920;-69
2023/03/13 10:59:32;;;;;;;;;;;14.10;99.90;;;;;;5002557;28;207314;-67
2023/03/13 11:01:59;;;;;;;;;;;14.00;99.90;;;;;;5053076;28;20342;-68
2023/03/13 11:04:28;;;;;;;;;;;14.00;99.90;;;;;;4993667;28;228954;-69
2023/03/13 11:06:57;;;;;;;;;;;14.00;99.90;;;;;;5069540;28;19920;-69
2023/03/13 11:09:25;;;;;;;;;;;14.20;99.90;;;;;;5051403;28;39274;-70
2023/03/13 11:12:00;;;;;;;;;;;14.20;99.90;;;;;;5063458;28;19932;-68
2023/03/13 11:14:25;;;;;;;;;;;14.10;99.90;;;;;;5025866;28;208435;-69
2023/03/13 11:16:59;;;;;;;;;;;14.10;99.90;;;;;;5073157;28;19931;-71
2023/03/13 11:19:32;;;;;;;;;;;14.10;99.90;;;;;;5014757;28;235514;-71
2023/03/13 11:22:10;;;;;;;;;;;14.10;99.90;;;;;;5064599;28;19928;-71
2023/03/13 11:24:42;;;;;;;;;;;14.10;99.90;;;;;;5020579;28;206871;-71
2023/03/13 11:27:14;;;;;;;;;;;14.10;99.90;;;;;;5077629;28;19920;-70
2023/03/13 11:29:48;;;;;;;;;;;14.10;99.90;;;;;;5008927;28;204837;-71
2023/03/13 11:32:41;;;;;;;;;;;14.20;99.90;;;;;;5059477;28;20004;-71
2023/03/13 11:35:27;;;;;;;;;;;14.20;99.90;;;;;;5032402;28;208640;-72
2023/03/13 11:37:55;;;;;;;;;;;14.20;99.90;;;;;;5081816;28;19927;-72
2023/03/13 11:40:21;;;;;;;;;;;14.20;99.90;;;;;;5023210;28;209718;-71
2023/03/13 11:43:12;;;;;;;;;;;14.40;99.90;;;;;;5079454;28;19943;-71
2023/03/13 11:45:56;;;;;;;;;;;14.40;99.90;;;;;;5007309;28;228845;-71
2023/03/13 11:48:41;;;;;;;;;;;14.90;99.90;;;;;;5097849;28;19924;-72
2023/03/13 11:51:30;;;;;;;;;;;15.10;99.90;;;;;;4994420;28;19947;-71
2023/03/13 11:54:22;;;;;;;;;;;15.60;99.90;;;;;;4978744;28;219885;-72
2023/03/13 11:56:53;;;;;;;;;;;16.00;99.90;;;;;;5004266;28;19921;-72
2023/03/13 11:59:42;;;;;;;;;;;15.90;99.90;;;;;;4974979;28;208800;-71
2023/03/13 12:02:27;;;;;;;;;;;15.90;99.90;;;;;;5015591;28;19924;-71
2023/03/13 12:04:57;;;;;;;;;;;15.60;99.90;;;;;;4947010;28;227774;-71
2023/03/13 12:07:29;;;;;;;;;;;15.40;99.90;;;;;;5036259;28;19948;-71
2023/03/13 12:09:55;;;;;;;;;;;15.50;99.90;;;;;;4964510;28;206673;-71
2023/03/13 12:12:34;;;;;;;;;;;15.40;99.90;;;;;;5034719;28;20002;-71
2023/03/13 12:15:02;;;;;;;;;;;15.70;99.90;;;;;;4968150;28;212059;-70
2023/03/13 12:17:28;;;;;;;;;;;15.40;99.90;;;;;;5012516;28;19921;-70
2023/03/13 12:19:57;;;;;;;;;;;15.20;99.90;;;;;;4983834;28;208241;-71
2023/03/13 12:22:45;;;;;;;;;;;15.50;99.90;;;;;;5039523;28;19928;-71
2023/03/13 12:25:16;;;;;;;;;;;15.40;99.90;;;;;;4942094;28;73865;-71
2023/03/13 12:27:48;;;;;;;;;;;15.30;99.90;;;;;;4985002;28;19932;-70
2023/03/13 12:30:26;;;;;;;;;;;15.20;99.90;;;;;;4914330;28;208542;-71
2023/03/13 12:32:58;;;;;;;;;;;15.20;99.90;;;;;;4984039;28;19929;-70
2023/03/13 12:35:28;;;;;;;;;;;15.70;99.90;;;;;;4943559;28;209513;-71
2023/03/13 12:38:05;;;;;;;;;;;15.80;99.90;;;;;;4988336;28;19929;-71
2023/03/13 12:40:34;;;;;;;;;;;15.90;99.90;;;;;;4932520;28;170650;-70
2023/03/13 12:43:04;;;;;;;;;;;16.10;99.90;;;;;;4976256;28;20426;-71
2023/03/13 12:45:31;;;;;;;;;;;16.20;99.90;;;;;;4936004;28;209531;-71
2023/03/13 12:48:06;;;;;;;;;;;15.90;99.90;;;;;;4987591;28;19926;-71
2023/03/13 12:50:55;;;;;;;;;;;16.20;99.90;;;;;;4956773;28;98716;-70
2023/03/13 12:53:26;;;;;;;;;;;16.10;99.90;;;;;;5003876;28;19922;-70
2023/03/13 12:55:57;;;;;;;;;;;16.40;99.90;;;;;;4934553;28;173000;-71
2023/03/13 12:58:43;;;;;;;;;;;15.90;99.90;;;;;;5020294;28;19922;-69
2023/03/13 13:01:14;;;;;;;;;;;15.90;99.90;;;;;;4964348;28;36361;-70
2023/03/13 13:03:43;;;;;;;;;;;16.20;99.90;;;;;;4998768;28;239535;-69
2023/03/13 13:06:11;;;;;;;;;;;16.40;99.90;;;;;;5061487;28;20549;-71
2023/03/13 13:08:37;;;;;;;;;;;16.40;99.90;;;;;;5025533;28;210320;-71
2023/03/13 13:11:22;;;;;;;;;;;16.30;99.90;;;;;;5078570;28;19971;-72
2023/03/13 13:13:48;;;;;;;;;;;16.00;99.90;;;;;;5039064;28;244291;-72
2023/03/13 13:16:17;;;;;;;;;;;16.30;99.90;;;;;;5033925;28;19924;-72
2023/03/13 13:18:43;;;;;;;;;;;15.60;99.90;;;;;;5007440;28;230693;-74
2023/03/13 13:21:16;;;;;;;;;;;16.00;99.90;;;;;;5037400;28;19920;-72
2023/03/13 13:23:45;;;;;;;;;;;16.40;99.90;;;;;;4986786;28;214782;-74
2023/03/13 13:26:32;;;;;;;;;;;16.60;99.90;;;;;;5041454;28;19924;-74
2023/03/13 13:28:59;;;;;;;;;;;16.80;99.90;;;;;;5010510;28;208651;-74
2023/03/13 13:31:44;;;;;;;;;;;16.70;99.90;;;;;;5041878;28;19936;-73
2023/03/13 13:34:31;;;;;;;;;;;16.90;99.80;;;;;;5012193;28;211787;-73
2023/03/13 13:36:57;;;;;;;;;;;17.10;99.90;;;;;;5055696;28;19924;-73
2023/03/13 13:39:46;;;;;;;;;;;16.80;99.90;;;;;;5011773;28;224108;-72
2023/03/13 13:42:31;;;;;;;;;;;17.30;99.80;;;;;;5063719;28;19928;-73
2023/03/13 13:44:56;;;;;;;;;;;17.40;99.40;;;;;;5021876;28;224075;-72
2023/03/13 13:47:24;;;;;;;;;;;17.60;99.40;;;;;;5072321;28;20286;-73
2023/03/13 13:49:54;;;;;;;;;;;17.80;99.20;;;;;;5006173;28;206243;-73
2023/03/13 13:52:32;;;;;;;;;;;17.50;99.30;;;;;;5066543;28;19932;-72
2023/03/13 13:54:58;;;;;;;;;;;17.20;99.60;;;;;;5018892;28;242550;-73
2023/03/13 13:57:35;;;;;;;;;;;16.60;99.90;;;;;;5077794;28;19920;-71
2023/03/13 14:00:04;;;;;;;;;;;16.80;99.90;;;;;;5031687;28;233149;-72
2023/03/13 14:02:34;;;;;;;;;;;17.40;99.90;;;;;;5081617;28;19931;-72
2023/03/13 14:05:00;;;;;;;;;;;17.70;99.80;;;;;;5012312;28;170742;-72
2023/03/13 14:07:26;;;;;;;;;;;17.90;99.70;;;;;;5072783;28;19924;-72
2023/03/13 14:10:00;;;;;;;;;;;17.50;99.90;;;;;;5011660;28;208619;-72
2023/03/13 14:12:28;;;;;;;;;;;17.20;99.90;;;;;;5057116;28;20018;-73
2023/03/13 14:15:12;;;;;;;;;;;17.40;99.60;;;;;;5014141;28;180234;-72
2023/03/13 14:17:41;;;;;;;;;;;17.80;99.30;;;;;;5074463;28;19928;-73
2023/03/13 14:20:16;;;;;;;;;;;17.60;99.00;;;;;;5002079;28;209250;-73
2023/03/13 14:22:46;;;;;;;;;;;17.90;98.50;;;;;;5058366;28;20490;-73